Time;durP1;ratioP1;P1;durP2;ratioP2;P2;SDS_P1;SDS_P2;PMS_P1;PMS_P2;Temp;Humidity;BMP_temperature;BMP_pressure;BME280_temperature;BME280_humidity;BME280_pressure;Samples;Min_cycle;Max_cycle;Signal;HPM_P1;HPM_P2
2024/04/10 00:00:14;;;;;;;16.27;8.15;;;;;;;14.10;63.59;100513.38;1723830;81;20972;-69
2024/04/10 00:02:42;;;;;;;18.55;7.85;;;;;;;14.08;63.60;100517.73;1739502;81;21043;-68
2024/04/10 00:05:13;;;;;;;15.78;7.72;;;;;;;14.07;63.58;100509.15;1739474;82;21078;-68
2024/04/10 00:07:41;;;;;;;19.25;7.28;;;;;;;14.04;63.57;100508.20;1739221;82;21011;-69
2024/04/10 00:10:09;;;;;;;18.02;8.23;;;;;;;14.01;63.65;100510.02;1739488;82;21055;-68
2024/04/10 00:12:38;;;;;;;16.32;7.75;;;;;;;14.00;63.97;100512.99;1739651;81;21087;-69
2024/04/10 00:15:06;;;;;;;17.27;7.85;;;;;;;13.99;64.22;100516.28;1739451;82;21066;-69
2024/04/10 00:17:35;;;;;;;20.55;8.08;;;;;;;13.98;64.21;100513.73;1739601;82;21063;-69
2024/04/10 00:20:05;;;;;;;20.00;7.83;;;;;;;13.98;64.23;100516.49;1739427;82;21059;-71
2024/04/10 00:22:34;;;;;;;17.27;8.05;;;;;;;13.98;64.23;100517.88;1739695;82;21016;-69
2024/04/10 00:25:03;;;;;;;16.57;7.90;;;;;;;13.97;64.22;100518.41;1739427;81;21545;-70
2024/04/10 00:27:32;;;;;;;14.95;7.78;;;;;;;13.96;64.27;100522.22;1739832;81;21840;-69
2024/04/10 00:30:00;;;;;;;20.10;7.60;;;;;;;13.93;64.23;100523.50;1739450;82;21047;-68
2024/04/10 00:32:29;;;;;;;19.40;7.65;;;;;;;13.93;64.23;100526.78;1739484;81;21043;-69
2024/04/10 00:34:59;;;;;;;17.77;7.78;;;;;;;13.91;64.23;100517.89;1739607;81;21024;-69
2024/04/10 00:37:27;;;;;;;13.62;7.10;;;;;;;13.88;64.36;100518.33;1739693;81;21486;-69
2024/04/10 00:39:55;;;;;;;17.10;7.12;;;;;;;13.87;64.38;100523.52;1739445;82;21075;-70
2024/04/10 00:42:25;;;;;;;18.40;7.75;;;;;;;13.84;64.37;100520.67;1739677;82;21020;-69
2024/04/10 00:44:54;;;;;;;14.43;7.28;;;;;;;13.84;64.42;100521.20;1739427;81;21039;-69
2024/04/10 00:47:23;;;;;;;14.60;7.80;;;;;;;13.84;64.40;100519.30;1739425;82;21004;-69
2024/04/10 00:49:52;;;;;;;19.40;7.92;;;;;;;13.84;64.42;100519.83;1739536;82;21036;-70
2024/04/10 00:52:20;;;;;;;15.63;8.23;;;;;;;13.84;64.25;100524.80;1739488;81;21055;-69
2024/04/10 00:54:48;;;;;;;16.87;7.95;;;;;;;13.84;64.50;100533.06;1739714;82;21047;-67
2024/04/10 00:57:16;;;;;;;16.17;7.90;;;;;;;13.83;64.39;100522.27;1739248;81;21182;-69
2024/04/10 00:59:45;;;;;;;15.00;7.92;;;;;;;13.83;64.30;100520.88;1719206;82;21020;-69
2024/04/10 01:02:14;;;;;;;18.25;9.05;;;;;;;13.82;64.20;100526.08;1739382;82;21039;-68
2024/04/10 01:04:43;;;;;;;20.27;8.83;;;;;;;13.79;64.21;100532.87;1739618;82;21075;-68
2024/04/10 01:07:13;;;;;;;17.87;8.83;;;;;;;13.78;64.32;100531.17;1739672;81;21423;-69
2024/04/10 01:09:41;;;;;;;14.95;8.53;;;;;;;13.76;64.43;100529.70;1739609;82;21032;-69
2024/04/10 01:12:10;;;;;;;15.95;8.40;;;;;;;13.73;64.55;100528.75;1739627;82;21044;-69
2024/04/10 01:14:39;;;;;;;15.72;8.10;;;;;;;13.70;64.68;100526.42;1739437;82;21498;-69
2024/04/10 01:17:07;;;;;;;15.18;8.20;;;;;;;13.67;64.79;100525.48;1739383;82;21024;-69
2024/04/10 01:19:36;;;;;;;18.17;8.83;;;;;;;13.62;64.82;100529.69;1739466;82;21043;-69
2024/04/10 01:22:05;;;;;;;17.80;7.33;;;;;;;13.62;64.99;100532.44;1739423;81;21098;-69
2024/04/10 01:24:34;;;;;;;16.30;7.58;;;;;;;13.62;64.88;100531.06;1739413;82;21056;-68
2024/04/10 01:27:04;;;;;;;20.50;7.30;;;;;;;13.62;64.79;100539.33;1739416;82;21509;-68
2024/04/10 01:29:33;;;;;;;15.80;7.30;;;;;;;13.63;64.72;100532.77;1739621;81;20992;-69
2024/04/10 01:32:04;;;;;;;15.40;6.90;;;;;;;13.63;64.74;100534.14;1739519;81;20985;-70
2024/04/10 01:34:33;;;;;;;12.10;6.05;;;;;;;13.62;64.72;100528.84;1739591;82;21020;-69
2024/04/10 01:37:01;;;;;;;17.32;6.60;;;;;;;13.61;64.62;100532.13;1739415;81;21043;-69
2024/04/10 01:39:30;;;;;;;14.18;6.97;;;;;;;13.59;64.40;100534.25;1739524;82;21514;-68
2024/04/10 01:41:58;;;;;;;10.80;6.30;;;;;;;13.60;64.19;100533.19;1739655;82;21419;-69
2024/04/10 01:44:27;;;;;;;14.98;6.30;;;;;;;13.62;63.67;100537.95;1739899;82;21024;-69
2024/04/10 01:46:55;;;;;;;11.53;5.70;;;;;;;13.67;63.49;100539.25;1739480;82;21033;-70
2024/04/10 01:49:24;;;;;;;10.28;5.58;;;;;;;13.68;63.38;100539.56;1739476;82;21000;-69
2024/04/10 01:51:53;;;;;;;10.10;5.55;;;;;;;13.69;63.13;100537.12;1739527;81;21059;-68
2024/04/10 01:54:22;;;;;;;9.40;4.53;;;;;;;13.71;62.80;100550.15;1739697;82;21027;-69
2024/04/10 01:56:50;;;;;;;8.60;4.90;;;;;;;13.74;61.98;100550.56;1739648;82;21039;-69
2024/04/10 01:59:19;;;;;;;7.50;4.50;;;;;;;13.78;61.82;100553.73;1739412;82;21416;-69
2024/04/10 02:01:49;;;;;;;10.40;5.37;;;;;;;13.83;61.03;100556.69;1722236;82;21090;-69
2024/04/10 02:04:17;;;;;;;11.55;4.90;;;;;;;13.89;60.98;100560.81;1745514;80;21055;-69
2024/04/10 02:06:46;;;;;;;7.37;4.87;;;;;;;13.93;60.41;100557.09;1745350;82;21019;-69
2024/04/10 02:09:15;;;;;;;9.03;4.60;;;;;;;13.98;60.33;100566.09;1745334;82;21500;-71
2024/04/10 02:11:45;;;;;;;11.65;4.95;;;;;;;14.01;59.98;100562.36;1745334;82;21043;-69
2024/04/10 02:14:14;;;;;;;9.53;4.42;;;;;;;14.05;59.64;100562.25;1745300;81;21494;-71
2024/04/10 02:16:43;;;;;;;10.55;4.80;;;;;;;14.08;59.39;100557.68;1745303;80;20975;-69
2024/04/10 02:19:12;;;;;;;12.25;4.97;;;;;;;14.12;59.21;100558.09;1745256;82;21000;-69
2024/04/10 02:21:40;;;;;;;9.50;4.35;;;;;;;14.13;58.82;100557.03;1724752;82;21502;-69
2024/04/10 02:24:09;;;;;;;9.80;4.50;;;;;;;14.16;58.28;100559.34;1745355;82;21584;-70
2024/04/10 02:26:37;;;;;;;9.85;5.33;;;;;;;14.20;58.21;100563.36;1745376;82;21487;-70
2024/04/10 02:29:09;;;;;;;10.32;4.72;;;;;;;14.22;58.15;100559.33;1745273;80;21011;-69
2024/04/10 02:31:37;;;;;;;11.53;5.42;;;;;;;14.24;58.17;100563.24;1745389;82;21012;-70
2024/04/10 02:34:06;;;;;;;10.70;5.10;;;;;;;14.25;58.09;100562.18;1745291;80;21070;-69
2024/04/10 02:36:34;;;;;;;12.70;4.70;;;;;;;14.22;58.17;100560.70;1745521;82;21100;-68
2024/04/10 02:39:04;;;;;;;13.15;5.20;;;;;;;14.19;58.08;100560.30;1745262;80;21059;-69
2024/04/10 02:41:32;;;;;;;8.48;4.47;;;;;;;14.18;58.20;100567.72;1745398;80;21048;-69
2024/04/10 02:44:01;;;;;;;12.00;5.12;;;;;;;14.17;57.96;100562.42;1745452;82;21075;-69
2024/04/10 02:46:29;;;;;;;10.68;5.03;;;;;;;14.15;58.03;100569.53;1745127;82;21071;-69
2024/04/10 02:48:58;;;;;;;13.08;4.85;;;;;;;14.12;58.42;100567.20;1745388;82;21071;-69
2024/04/10 02:51:27;;;;;;;11.30;4.45;;;;;;;14.08;58.58;100571.98;1745318;82;21027;-69
2024/04/10 02:53:55;;;;;;;8.00;4.45;;;;;;;14.01;58.66;100563.74;1745339;80;20988;-69
2024/04/10 02:56:24;;;;;;;11.18;4.87;;;;;;;13.97;58.87;100562.48;1745483;82;21043;-69
2024/04/10 02:58:52;;;;;;;8.10;4.70;;;;;;;13.92;58.89;100559.53;1745291;80;21075;-69
2024/04/10 03:01:21;;;;;;;7.55;4.53;;;;;;;13.88;59.01;100561.02;1744523;81;20992;-69
2024/04/10 03:03:50;;;;;;;8.40;4.12;;;;;;;13.82;59.16;100571.52;1739609;82;21031;-68
2024/04/10 03:06:20;;;;;;;8.15;3.98;;;;;;;13.78;59.18;100571.64;1739497;82;21055;-70
2024/04/10 03:08:50;;;;;;;8.98;4.53;;;;;;;13.73;59.19;100568.15;1739461;81;21094;-66
2024/04/10 03:11:18;;;;;;;8.83;4.35;;;;;;;13.71;59.47;100566.67;1739658;82;21036;-69
2024/04/10 03:13:48;;;;;;;16.37;4.53;;;;;;;13.68;59.50;100562.97;1739451;82;21063;-69
2024/04/10 03:16:18;;;;;;;9.58;4.50;;;;;;;13.63;59.62;100553.41;1739613;82;21016;-69
2024/04/10 03:18:46;;;;;;;8.73;4.10;;;;;;;13.59;59.90;100558.19;1739559;81;21056;-68
2024/04/10 03:21:15;;;;;;;9.88;4.67;;;;;;;13.53;60.11;100561.26;1739442;82;21028;-69
2024/04/10 03:23:43;;;;;;;8.53;4.00;;;;;;;13.52;60.10;100564.23;1631652;86;21118;-69
2024/04/10 03:26:13;;;;;;;8.28;4.08;;;;;;;13.49;60.15;100562.75;1658218;86;21101;-69
2024/04/10 03:28:42;;;;;;;9.53;3.70;;;;;;;13.48;60.31;100565.18;1658249;86;21065;-69
2024/04/10 03:31:11;;;;;;;8.43;4.00;;;;;;;13.46;60.16;100560.42;1658097;86;21027;-69
2024/04/10 03:33:40;;;;;;;11.30;4.00;;;;;;;13.43;60.24;100563.59;1657987;86;21145;-69
2024/04/10 03:36:09;;;;;;;9.33;4.20;;;;;;;13.40;60.32;100568.67;1658147;85;21055;-70
2024/04/10 03:38:37;;;;;;;12.90;4.55;;;;;;;13.34;60.46;100566.25;1657919;86;21044;-69
2024/04/10 03:41:06;;;;;;;12.00;4.60;;;;;;;13.32;60.72;100565.08;1658027;85;21083;-68
2024/04/10 03:43:35;;;;;;;13.62;4.55;;;;;;;13.32;61.01;100577.47;1658209;85;21032;-69
2024/04/10 03:46:06;;;;;;;15.53;5.30;;;;;;;13.31;61.17;100573.02;1658272;86;21040;-69
2024/04/10 03:48:35;;;;;;;14.50;5.70;;;;;;;13.30;61.14;100574.08;1707290;81;21044;-69
2024/04/10 03:51:05;;;;;;;11.93;5.35;;;;;;;13.29;61.34;100576.52;1739387;81;21501;-69
2024/04/10 03:53:34;;;;;;;9.95;4.60;;;;;;;13.32;61.36;100579.37;1739648;82;21479;-70
2024/04/10 03:56:05;;;;;;;8.45;4.70;;;;;;;13.33;61.34;100587.94;1739720;82;21031;-69
2024/04/10 03:58:36;;;;;;;12.13;4.72;;;;;;;13.33;61.30;100592.07;1739581;82;21015;-69
2024/04/10 04:01:04;;;;;;;9.08;4.83;;;;;;;13.34;61.18;100595.14;1739646;82;21050;-70
2024/04/10 04:03:34;;;;;;;15.80;5.25;;;;;;;13.33;61.30;100601.70;1699445;82;21102;-70
2024/04/10 04:06:04;;;;;;;12.50;5.22;;;;;;;13.35;61.42;100598.21;1745563;82;21094;-70
2024/04/10 04:08:33;;;;;;;14.05;4.92;;;;;;;13.38;61.66;100592.28;1745240;80;21039;-69
2024/04/10 04:11:04;;;;;;;10.03;6.03;;;;;;;13.42;61.48;100596.31;1745371;80;20995;-69
2024/04/10 04:13:33;;;;;;;12.18;5.60;;;;;;;13.46;61.50;100594.83;1745294;82;21439;-68
2024/04/10 04:16:02;;;;;;;12.07;6.00;;;;;;;13.50;61.55;100594.72;1745466;80;21098;-67
2024/04/10 04:18:31;;;;;;;13.95;5.53;;;;;;;13.55;61.41;100599.06;1745175;82;21115;-70
2024/04/10 04:21:00;;;;;;;10.40;5.62;;;;;;;13.59;61.24;100595.35;1745134;80;21039;-70
2024/04/10 04:23:29;;;;;;;19.37;5.80;;;;;;;13.63;61.07;100605.73;1724613;82;21051;-69
2024/04/10 04:25:58;;;;;;;20.60;6.10;;;;;;;13.66;61.05;100601.73;1745415;82;21059;-69
2024/04/10 04:28:26;;;;;;;17.85;6.28;;;;;;;13.71;61.03;100606.06;1745161;82;21043;-68
2024/04/10 04:30:56;;;;;;;14.58;5.97;;;;;;;13.75;61.10;100612.84;1745410;82;21436;-70
2024/04/10 04:33:25;;;;;;;11.18;5.55;;;;;;;13.79;60.99;100618.77;1745431;80;21036;-70
2024/04/10 04:35:54;;;;;;;12.95;5.50;;;;;;;13.82;61.10;100615.06;1745188;81;21071;-69
2024/04/10 04:38:22;;;;;;;15.88;6.12;;;;;;;13.86;61.20;100613.57;1745487;82;21051;-69
2024/04/10 04:40:52;;;;;;;15.18;5.80;;;;;;;13.91;61.14;100615.69;1724725;82;21015;-69
2024/04/10 04:43:23;;;;;;;17.23;6.17;;;;;;;13.95;61.07;100612.28;1745403;80;21080;-69
2024/04/10 04:45:52;;;;;;;16.77;6.17;;;;;;;14.01;60.98;100613.86;1745439;82;21015;-71
2024/04/10 04:48:20;;;;;;;13.62;6.45;;;;;;;14.08;60.83;100619.68;1745331;80;21047;-69
2024/04/10 04:50:49;;;;;;;18.00;7.35;;;;;;;14.17;60.48;100610.12;1724300;80;21505;-70
2024/04/10 04:53:19;;;;;;;16.12;7.12;;;;;;;14.29;60.23;100612.52;1745183;82;21020;-70
2024/04/10 04:55:48;;;;;;;17.23;7.58;;;;;;;14.45;59.85;100614.55;1745226;82;21031;-69
2024/04/10 04:58:16;;;;;;;16.50;7.12;;;;;;;14.62;59.38;100617.13;1745156;80;21059;-69
2024/04/10 05:00:44;;;;;;;21.93;7.97;;;;;;;14.77;58.88;100620.44;1724576;82;21031;-69
2024/04/10 05:04:54;;;;;;;25.43;10.85;;;;;;;14.90;58.52;100624.51;1741856;80;21024;-69
2024/04/10 05:05:44;;;;;;;17.75;9.13;;;;;;;15.03;58.08;100628.30;1651601;85;21470;-70
2024/04/10 05:08:14;;;;;;;20.55;9.78;;;;;;;15.12;57.62;100628.34;1739533;82;21012;-69
2024/04/10 05:10:44;;;;;;;19.07;9.35;;;;;;;15.20;57.15;100629.45;1739503;82;21484;-70
2024/04/10 05:13:13;;;;;;;24.75;10.28;;;;;;;15.26;56.80;100629.95;1739482;81;21470;-71
2024/04/10 05:15:41;;;;;;;31.37;11.10;;;;;;;15.34;56.35;100639.88;1739458;82;21101;-70
2024/04/10 05:18:10;;;;;;;40.30;12.78;;;;;;;15.40;55.95;100637.60;1739446;81;21541;-70
2024/04/10 05:20:38;;;;;;;31.90;14.35;;;;;;;15.46;55.78;100639.47;1739446;81;21403;-70
2024/04/10 05:23:08;;;;;;;30.30;14.47;;;;;;;15.53;55.59;100635.58;1739426;82;21525;-70
2024/04/10 05:25:36;;;;;;;41.18;16.15;;;;;;;15.59;55.38;100633.87;1739573;81;21031;-70
2024/04/10 05:28:05;;;;;;;41.58;16.25;;;;;;;15.67;55.15;100635.54;1739693;81;21039;-70
2024/04/10 05:30:35;;;;;;;36.05;16.93;;;;;;;15.73;54.81;100634.09;1739676;82;21059;-70
2024/04/10 05:33:04;;;;;;;41.58;18.00;;;;;;;15.80;54.33;100640.95;1739422;81;21431;-69
2024/04/10 05:35:33;;;;;;;35.03;16.65;;;;;;;15.88;53.95;100646.19;1739662;82;21078;-69
2024/04/10 05:38:03;;;;;;;41.05;16.97;;;;;;;15.95;53.76;100641.98;1718991;82;21580;-70
2024/04/10 05:40:32;;;;;;;38.90;18.23;;;;;;;16.02;53.52;100646.38;1739521;81;21114;-72
2024/04/10 05:43:02;;;;;;;39.25;18.87;;;;;;;16.08;53.61;100647.37;1739496;81;21067;-71
2024/04/10 05:45:31;;;;;;;44.45;19.00;;;;;;;16.13;53.57;100646.16;1739518;81;21463;-71
2024/04/10 05:48:00;;;;;;;45.70;19.75;;;;;;;16.18;53.23;100641.63;1739501;82;21489;-71
2024/04/10 05:50:30;;;;;;;45.28;18.70;;;;;;;16.24;52.83;100648.70;1739302;81;21076;-69
2024/04/10 05:52:59;;;;;;;35.50;16.97;;;;;;;16.33;52.64;100657.05;1718741;82;21491;-68
2024/04/10 05:55:29;;;;;;;36.95;17.42;;;;;;;16.38;52.24;100655.81;1739572;81;21031;-69
2024/04/10 05:57:58;;;;;;;40.33;16.95;;;;;;;16.46;51.85;100658.28;1739360;82;21050;-70
2024/04/10 06:00:26;;;;;;;37.90;16.30;;;;;;;16.54;51.55;100662.12;1739455;82;21447;-70
2024/04/10 06:02:56;;;;;;;35.35;16.75;;;;;;;16.60;51.40;100668.11;1721095;82;21518;-70
2024/04/10 06:05:25;;;;;;;34.63;16.15;;;;;;;16.66;51.27;100659.46;1745145;82;21455;-70
2024/04/10 06:07:54;;;;;;;38.20;15.13;;;;;;;16.72;50.84;100664.91;1745282;82;21055;-70
2024/04/10 06:10:22;;;;;;;36.42;14.35;;;;;;;16.79;50.42;100666.22;1745235;82;21074;-70
2024/04/10 06:12:52;;;;;;;33.42;14.68;;;;;;;16.88;49.77;100670.89;1724655;82;21440;-68
2024/04/10 06:15:21;;;;;;;27.85;12.68;;;;;;;17.00;49.44;100669.06;1745365;80;21060;-70
2024/04/10 06:17:49;;;;;;;33.20;14.38;;;;;;;17.08;49.32;100667.36;1724618;82;21479;-71
2024/04/10 06:20:18;;;;;;;31.27;14.70;;;;;;;17.16;49.00;100671.18;1745438;82;21062;-70
2024/04/10 06:22:48;;;;;;;30.95;13.35;;;;;;;17.24;48.96;100668.08;1745280;82;21095;-69
2024/04/10 06:25:17;;;;;;;30.20;15.43;;;;;;;17.31;48.94;100667.44;1745141;82;21505;-70
2024/04/10 06:27:45;;;;;;;32.78;15.70;;;;;;;17.37;48.98;100668.42;1745255;80;21023;-70
2024/04/10 06:30:15;;;;;;;39.83;15.28;;;;;;;17.43;48.89;100663.33;1692529;82;21062;-70
2024/04/10 06:32:44;;;;;;;39.88;14.80;;;;;;;17.49;48.78;100671.23;1745344;80;21074;-70
2024/04/10 06:35:14;;;;;;;39.08;16.07;;;;;;;17.57;48.73;100671.77;1724765;82;21043;-71
2024/04/10 06:37:42;;;;;;;47.93;18.00;;;;;;;17.63;48.71;100671.36;1745145;82;21528;-69
2024/04/10 06:40:11;;;;;;;34.15;15.32;;;;;;;17.70;48.65;100667.98;1745229;81;21020;-70
2024/04/10 06:42:40;;;;;;;34.60;15.55;;;;;;;17.77;48.51;100672.86;1745374;82;21051;-69
2024/04/10 06:45:08;;;;;;;51.05;20.90;;;;;;;17.82;48.42;100666.06;1745335;82;21527;-69
2024/04/10 06:47:37;;;;;;;43.87;19.02;;;;;;;17.90;48.35;100673.19;1745482;80;21093;-70
2024/04/10 06:50:07;;;;;;;45.38;19.73;;;;;;;17.97;48.26;100671.98;1745396;80;21063;-71
2024/04/10 06:52:37;;;;;;;37.90;17.57;;;;;;;18.03;48.14;100664.09;1745179;82;21078;-72
2024/04/10 06:55:07;;;;;;;36.40;14.00;;;;;;;18.11;47.90;100664.28;1745189;82;21498;-71
2024/04/10 06:57:35;;;;;;;32.63;12.07;;;;;;;18.19;47.58;100671.39;1745390;82;21067;-70
2024/04/10 07:00:12;;;;;;;34.88;11.83;;;;;;;18.27;47.13;100679.38;1745306;82;21027;-69
2024/04/10 07:02:42;;;;;;;23.18;9.43;;;;;;;18.35;46.83;100673.47;1742198;80;21012;-70
2024/04/10 07:05:11;;;;;;;21.57;8.95;;;;;;;18.54;46.16;100681.95;1722211;83;21030;-71
2024/04/10 07:07:40;;;;;;;23.40;8.38;;;;;;;18.85;45.60;100679.88;1722077;82;21525;-68
2024/04/10 07:10:09;;;;;;;20.15;8.65;;;;;;;19.28;44.88;100673.28;1722148;82;21066;-71
2024/04/10 07:12:38;;;;;;;13.22;7.70;;;;;;;19.78;43.99;100680.93;1722388;82;21482;-70
2024/04/10 07:15:07;;;;;;;15.78;8.10;;;;;;;20.32;42.90;100680.44;1722194;82;21047;-71
2024/04/10 07:17:36;;;;;;;18.17;7.35;;;;;;;20.76;41.72;100675.80;1699797;83;21046;-71
2024/04/10 07:20:07;;;;;;;10.90;5.08;;;;;;;21.03;40.82;100682.31;1722103;82;21055;-71
2024/04/10 07:22:36;;;;;;;17.73;7.12;;;;;;;21.16;39.74;100683.86;1722108;82;21095;-71
2024/04/10 07:25:06;;;;;;;27.25;8.73;;;;;;;21.24;39.64;100682.58;1722048;82;21784;-70
2024/04/10 07:27:35;;;;;;;25.17;10.28;;;;;;;21.31;39.50;100688.80;1722296;82;21055;-71
2024/04/10 07:30:05;;;;;;;34.25;13.30;;;;;;;21.34;39.38;100679.91;1722098;82;21512;-71
2024/04/10 07:32:35;;;;;;;23.73;8.35;;;;;;;21.41;39.21;100691.69;1722248;82;21039;-71
2024/04/10 07:35:05;;;;;;;14.33;5.53;;;;;;;21.46;38.81;100695.41;1722142;83;21520;-73
2024/04/10 07:37:34;;;;;;;16.00;5.65;;;;;;;21.52;38.04;100687.94;1722170;82;21046;-71
2024/04/10 07:40:03;;;;;;;11.70;5.55;;;;;;;21.60;37.52;100684.67;1699821;83;21455;-70
2024/04/10 07:42:32;;;;;;;13.50;5.40;;;;;;;21.77;37.50;100690.98;1722027;82;21162;-71
2024/04/10 07:45:03;;;;;;;14.83;4.65;;;;;;;22.08;37.38;100689.88;1721939;82;21439;-71
2024/04/10 07:47:33;;;;;;;10.80;4.78;;;;;;;22.52;36.68;100700.83;1722170;83;21023;-74
2024/04/10 07:50:02;;;;;;;13.08;4.80;;;;;;;22.95;35.85;100693.59;1699989;82;21026;-72
2024/04/10 07:52:32;;;;;;;15.38;5.40;;;;;;;23.45;35.09;100697.70;1748801;79;21045;-77
2024/04/10 07:55:05;;;;;;;15.40;4.60;;;;;;;23.90;34.13;100701.16;1748940;82;21467;-73
2024/04/10 07:57:35;;;;;;;10.23;4.62;;;;;;;24.36;34.23;100697.57;1779288;79;21079;-72
2024/04/10 08:00:08;;;;;;;6.95;4.25;;;;;;;24.87;33.56;100698.32;1745427;81;21040;-73
2024/04/10 08:02:40;;;;;;;10.18;3.92;;;;;;;25.36;32.68;100691.43;1788725;80;21427;-71
2024/04/10 08:05:10;;;;;;;10.58;3.52;;;;;;;25.81;31.96;100685.27;1759815;81;21074;-72
2024/04/10 08:07:41;;;;;;;7.83;3.67;;;;;;;26.16;31.35;100693.44;1751063;82;21070;-73
2024/04/10 08:10:12;;;;;;;7.28;3.65;;;;;;;26.49;30.67;100683.31;1751620;79;21497;-72
2024/04/10 08:12:48;;;;;;;12.70;4.05;;;;;;;26.74;30.23;100684.20;1800118;79;21085;-70
2024/04/10 08:15:24;;;;;;;8.93;4.10;;;;;;;26.94;29.91;100677.50;1799643;80;21470;-74
2024/04/10 08:18:01;;;;;;;7.95;4.03;;;;;;;27.21;29.72;100686.18;1799666;79;21072;-73
2024/04/10 08:20:33;;;;;;;6.83;3.60;;;;;;;27.45;29.03;100686.16;1799782;80;20984;-73
2024/04/10 08:23:03;;;;;;;13.45;4.70;;;;;;;27.57;28.77;100675.85;1799722;80;21035;-73
2024/04/10 08:25:31;;;;;;;14.87;4.70;;;;;;;27.77;28.69;100683.45;1799533;79;21059;-74
2024/04/10 08:28:01;;;;;;;16.07;5.50;;;;;;;27.89;27.84;100680.73;1762865;80;21050;-72
2024/04/10 08:30:30;;;;;;;11.93;4.95;;;;;;;27.89;28.05;100680.73;1750791;82;21512;-73
2024/04/10 08:33:00;;;;;;;14.73;4.97;;;;;;;28.01;28.36;100676.33;1750841;82;21043;-72
2024/04/10 08:35:29;;;;;;;14.90;5.28;;;;;;;28.20;27.99;100684.73;1730171;81;21063;-73
2024/04/10 08:37:58;;;;;;;11.20;4.10;;;;;;;28.27;28.18;100687.19;1750724;82;21119;-71
2024/04/10 08:40:27;;;;;;;6.08;2.85;;;;;;;28.37;27.21;100688.41;1732544;82;21066;-74
2024/04/10 08:42:56;;;;;;;7.62;2.83;;;;;;;28.42;26.57;100678.45;1753256;82;21469;-74
2024/04/10 08:45:29;;;;;;;5.62;3.10;;;;;;;28.46;26.42;100679.50;1753139;82;21517;-73
2024/04/10 08:48:01;;;;;;;6.37;3.42;;;;;;;28.50;26.13;100665.05;1750872;82;21035;-76
2024/04/10 08:50:34;;;;;;;8.25;3.27;;;;;;;28.58;26.43;100663.49;1750988;82;21099;-72
2024/04/10 08:53:03;;;;;;;6.50;3.40;;;;;;;28.63;25.72;100670.47;1750874;82;21568;-73
2024/04/10 08:55:34;;;;;;;6.12;3.00;;;;;;;28.55;25.60;100673.41;1750822;82;21068;-74
2024/04/10 08:58:08;;;;;;;5.67;2.90;;;;;;;28.48;26.13;100677.78;1751431;81;21090;-73
2024/04/10 09:00:42;;;;;;;7.75;3.80;;;;;;;28.40;26.16;100677.36;1750188;82;21082;-72
2024/04/10 09:03:12;;;;;;;7.97;3.40;;;;;;;28.28;26.32;100676.18;1747237;82;21023;-72
2024/04/10 09:05:42;;;;;;;6.40;3.45;;;;;;;28.17;26.55;100680.29;1761416;81;21034;-74
2024/04/10 09:08:13;;;;;;;6.95;3.20;;;;;;;28.10;26.67;100682.09;1761324;81;21015;-75
2024/04/10 09:10:41;;;;;;;5.42;3.05;;;;;;;28.02;26.41;100695.48;1761318;81;21015;-73
2024/04/10 09:13:11;;;;;;;8.53;3.40;;;;;;;27.74;26.28;100690.27;1761274;81;21047;-74
2024/04/10 09:15:41;;;;;;;5.45;3.02;;;;;;;27.43;26.50;100679.43;1740494;81;21086;-73
2024/04/10 09:18:11;;;;;;;5.67;2.98;;;;;;;27.24;26.63;100674.32;1761325;81;21043;-73
2024/04/10 09:20:41;;;;;;;6.00;3.05;;;;;;;26.87;27.19;100680.67;1761302;80;21488;-74
2024/04/10 09:23:14;;;;;;;7.00;3.33;;;;;;;26.87;27.19;100680.67;1761583;80;21008;-73
2024/04/10 09:25:47;;;;;;;7.92;5.37;;;;;;;26.77;27.33;100682.20;1741149;81;21082;-74
2024/04/10 09:28:20;;;;;;;7.20;3.25;;;;;;;26.67;27.47;100680.34;1761106;81;21015;-73
2024/04/10 09:30:57;;;;;;;12.93;4.70;;;;;;;26.58;27.59;100680.70;1761252;80;21486;-74
2024/04/10 09:33:33;;;;;;;4.95;3.10;;;;;;;26.31;27.19;100673.36;1761301;81;21011;-74
2024/04/10 09:36:11;;;;;;;5.37;3.27;;;;;;;26.31;27.19;100673.36;1761396;80;21450;-74
2024/04/10 09:38:42;;;;;;;4.53;2.75;;;;;;;26.18;27.73;100672.91;1761426;81;21058;-74
2024/04/10 09:41:22;;;;;;;4.37;2.98;;;;;;;26.09;27.91;100676.09;1740691;81;21512;-75
2024/04/10 09:44:06;;;;;;;5.37;2.98;;;;;;;25.99;28.25;100676.14;1761276;81;21050;-74
2024/04/10 09:46:44;;;;;;;7.28;2.80;;;;;;;25.91;28.30;100680.98;1761168;81;21512;-71
2024/04/10 09:49:22;;;;;;;5.50;2.67;;;;;;;25.83;28.16;100691.44;1742676;81;21063;-72
2024/04/10 09:51:54;;;;;;;6.78;3.33;;;;;;;25.75;28.15;100688.69;1761436;81;21277;-71
2024/04/10 09:54:23;;;;;;;5.33;3.17;;;;;;;25.69;28.32;100680.59;1761217;81;21059;-72
2024/04/10 09:56:53;;;;;;;6.53;3.20;;;;;;;25.67;28.35;100674.44;1772223;81;20991;-72
2024/04/10 09:59:22;;;;;;;5.87;3.10;;;;;;;25.66;28.57;100672.19;1776374;81;21051;-72
2024/04/10 10:01:55;;;;;;;5.90;3.37;;;;;;;25.61;28.61;100676.41;1765245;81;21485;-72
2024/04/10 10:04:26;;;;;;;5.62;3.12;;;;;;;25.56;28.47;100672.23;1765810;80;21511;-72
2024/04/10 10:07:01;;;;;;;4.08;2.80;;;;;;;25.46;28.62;100672.30;1730380;82;21602;-73
2024/04/10 10:09:30;;;;;;;6.75;2.95;;;;;;;25.40;28.50;100674.30;1753212;80;21387;-72
2024/04/10 10:11:59;;;;;;;9.30;3.20;;;;;;;25.35;28.71;100667.28;1753643;80;21010;-71
2024/04/10 10:14:33;;;;;;;8.78;3.10;;;;;;;25.32;28.79;100666.45;1755287;80;21535;-73
2024/04/10 10:17:09;;;;;;;5.83;3.08;;;;;;;25.37;28.84;100660.84;1732686;82;21529;-73
2024/04/10 10:19:37;;;;;;;7.15;3.20;;;;;;;25.37;28.79;100653.83;1729149;82;21517;-72
2024/04/10 10:22:07;;;;;;;5.87;3.10;;;;;;;25.32;28.58;100662.81;1755785;80;21078;-72
2024/04/10 10:24:38;;;;;;;8.90;3.40;;;;;;;25.25;28.55;100663.97;1755289;82;21023;-72
2024/04/10 10:27:06;;;;;;;8.08;3.30;;;;;;;25.25;28.84;100660.33;1755565;82;21502;-73
2024/04/10 10:29:36;;;;;;;6.35;3.02;;;;;;;25.27;28.58;100660.87;1755332;82;21205;-71
2024/04/10 10:32:07;;;;;;;5.67;2.83;;;;;;;25.26;28.67;100667.61;1755559;82;21085;-72
2024/04/10 10:34:35;;;;;;;5.15;2.87;;;;;;;25.24;28.58;100657.25;1755390;81;21066;-73
2024/04/10 10:37:07;;;;;;;6.28;2.95;;;;;;;25.18;28.66;100662.61;1755394;82;21034;-73
2024/04/10 10:39:43;;;;;;;6.95;3.83;;;;;;;25.17;28.61;100666.54;1755301;81;21105;-74
2024/04/10 10:42:12;;;;;;;8.30;3.60;;;;;;;25.17;28.41;100663.73;1755685;80;21046;-75
2024/04/10 10:44:41;;;;;;;7.92;3.42;;;;;;;25.17;28.40;100666.54;1732594;81;21560;-74
2024/04/10 10:47:11;;;;;;;5.42;3.08;;;;;;;25.18;28.59;100659.23;1755486;82;21462;-74
2024/04/10 10:49:41;;;;;;;4.83;2.90;;;;;;;25.20;28.73;100671.57;1755257;82;21354;-73
2024/04/10 10:52:16;;;;;;;5.08;3.00;;;;;;;25.21;28.94;100674.66;1755248;82;21045;-72
2024/04/10 10:54:51;;;;;;;10.65;3.08;;;;;;;25.19;28.76;100662.32;1755307;82;21182;-75
2024/04/10 10:57:20;;;;;;;5.75;3.02;;;;;;;25.16;29.00;100660.66;1755157;82;21479;-75
2024/04/10 10:59:49;;;;;;;5.90;3.37;;;;;;;25.15;29.02;100656.17;1755496;82;21086;-75
2024/04/10 11:02:20;;;;;;;3.35;2.45;;;;;;;25.15;29.32;100656.17;1753648;81;21010;-73
2024/04/10 11:04:48;;;;;;;8.45;3.05;;;;;;;25.17;29.13;100652.52;1764826;80;21448;-74
2024/04/10 11:07:20;;;;;;;7.05;3.20;;;;;;;25.19;28.91;100664.28;1745109;81;21082;-74
2024/04/10 11:09:49;;;;;;;12.23;4.22;;;;;;;25.22;28.67;100660.91;1745025;81;21531;-74
2024/04/10 11:12:17;;;;;;;10.60;3.70;;;;;;;25.22;28.46;100663.14;1776454;81;21434;-75
2024/04/10 11:14:49;;;;;;;10.78;3.80;;;;;;;25.27;27.73;100652.45;1776695;81;21019;-75
2024/04/10 11:17:19;;;;;;;8.25;3.65;;;;;;;25.35;27.94;100655.22;1776499;81;21030;-75
2024/04/10 11:19:48;;;;;;;4.37;2.83;;;;;;;25.40;28.01;100653.25;1776339;81;21580;-73
2024/04/10 11:22:21;;;;;;;5.30;3.02;;;;;;;25.44;28.07;100657.72;1744555;80;21015;-72
2024/04/10 11:24:50;;;;;;;7.20;2.77;;;;;;;25.41;28.13;100654.93;1776357;81;21034;-74
2024/04/10 11:27:19;;;;;;;5.95;2.80;;;;;;;25.37;27.87;100644.02;1776704;81;21014;-74
2024/04/10 11:29:48;;;;;;;5.75;3.40;;;;;;;25.37;27.66;100652.43;1776500;81;20987;-73